Time;durP1;ratioP1;P1;durP2;ratioP2;P2;SDS_P1;SDS_P2;PMS_P1;PMS_P2;Temp;Humidity;BMP_temperature;BMP_pressure;BME280_temperature;BME280_humidity;BME280_pressure;Samples;Min_cycle;Max_cycle;Signal;HPM_P1;HPM_P2
2021/12/25 05:03:34;;;;;;;6.50;5.80;;;;;;;12.93;64.82;97500.28;6813802;29;20226;-80
2021/12/25 05:06:56;;;;;;;9.27;6.27;;;;;;;13.14;64.36;97502.19;6818151;29;20281;-80
2021/12/25 05:10:19;;;;;;;6.90;5.53;;;;;;;13.32;63.38;97480.22;6818682;29;20214;-79
2021/12/25 05:13:42;;;;;;;5.07;4.27;;;;;;;12.94;64.71;97474.06;6818387;29;20218;-78
2021/12/25 05:17:05;;;;;;;5.47;4.37;;;;;;;13.27;63.83;97479.34;6817985;29;20321;-79
2021/12/25 05:20:27;;;;;;;7.33;4.63;;;;;;;13.35;63.37;97473.47;6818360;29;20225;-78
2021/12/25 05:23:49;;;;;;;4.93;4.43;;;;;;;13.29;63.48;97482.63;6818294;29;20218;-79
2021/12/25 05:27:13;;;;;;;5.13;4.63;;;;;;;13.33;63.36;97470.22;6817223;29;20199;-79
2021/12/25 05:30:35;;;;;;;6.17;5.50;;;;;;;13.40;62.87;97462.69;6817623;29;20238;-80
2021/12/25 05:33:57;;;;;;;5.97;5.37;;;;;;;13.25;63.64;97476.06;6818768;29;20549;-80
2021/12/25 05:37:19;;;;;;;5.87;4.77;;;;;;;13.19;63.92;97452.72;6818149;29;20265;-79
2021/12/25 05:40:40;;;;;;;7.20;5.80;;;;;;;13.23;63.36;97432.22;6817537;29;20226;-77
2021/12/25 05:44:04;;;;;;;5.53;5.03;;;;;;;13.53;62.67;97452.28;6818361;29;20206;-80
2021/12/25 05:47:26;;;;;;;5.20;4.70;;;;;;;13.70;62.22;97471.91;6818601;29;20209;-79
2021/12/25 05:50:47;;;;;;;6.93;5.53;;;;;;;13.67;62.11;97468.91;6818127;29;20703;-80
2021/12/25 05:54:09;;;;;;;5.60;5.10;;;;;;;13.36;62.90;97453.44;6818184;29;20297;-80
2021/12/25 05:57:30;;;;;;;7.17;5.37;;;;;;;13.49;62.75;97475.53;6818558;29;20234;-83
2021/12/25 06:00:53;;;;;;;6.83;6.13;;;;;;;13.52;62.82;97466.06;6818675;29;20743;-84
2021/12/25 06:04:16;;;;;;;5.10;4.47;;;;;;;13.46;63.13;97469.81;6817545;29;20291;-80
2021/12/25 06:07:37;;;;;;;4.80;4.30;;;;;;;13.31;64.02;97469.63;6818938;29;20257;-79
2021/12/25 06:11:02;;;;;;;4.53;3.93;;;;;;;13.75;62.47;97461.13;6818799;29;20238;-80
2021/12/25 06:14:24;;;;;;;5.67;4.90;;;;;;;13.56;62.13;97440.94;6818003;29;20293;-79
2021/12/25 06:17:47;;;;;;;7.37;6.00;;;;;;;13.41;62.79;97480.56;6816986;29;20241;-78
2021/12/25 06:21:08;;;;;;;7.53;6.27;;;;;;;13.44;62.39;97453.81;6818089;29;20242;-78
2021/12/25 06:24:31;;;;;;;7.50;6.33;;;;;;;13.55;62.69;97471.78;6816964;29;20222;-79
2021/12/25 06:27:52;;;;;;;10.50;8.37;;;;;;;13.27;63.24;97466.63;6820155;29;20245;-82
2021/12/25 06:31:14;;;;;;;9.07;7.03;;;;;;;13.26;63.05;97451.47;6817862;29;20241;-79
2021/12/25 06:34:37;;;;;;;9.77;7.50;;;;;;;13.41;63.24;97442.69;6816348;29;20213;-79
2021/12/25 06:37:59;;;;;;;10.33;7.47;;;;;;;13.43;63.10;97435.94;6817209;29;20221;-79
2021/12/25 06:41:20;;;;;;;8.50;7.57;;;;;;;13.76;62.21;97456.53;6816992;29;20222;-79
2021/12/25 06:44:42;;;;;;;8.10;7.30;;;;;;;13.62;61.88;97455.34;6789204;29;20253;-79
2021/12/25 06:48:04;;;;;;;9.43;7.97;;;;;;;12.98;64.55;97472.53;6789543;29;20219;-79
2021/12/25 06:51:28;;;;;;;10.10;7.97;;;;;;;13.31;64.21;97469.63;6791877;29;20610;-79
2021/12/25 06:54:50;;;;;;;10.57;8.20;;;;;;;13.69;62.48;97464.88;6813999;29;20221;-79
2021/12/25 06:58:12;;;;;;;9.53;8.50;;;;;;;13.39;62.78;97445.63;6815045;29;20234;-79
2021/12/25 07:01:34;;;;;;;11.17;8.80;;;;;;;12.78;64.62;97454.13;6809119;29;20384;-79
2021/12/25 07:04:56;;;;;;;10.83;9.67;;;;;;;12.72;64.45;97446.19;6815580;29;20648;-79
2021/12/25 07:08:19;;;;;;;16.27;11.17;;;;;;;12.87;64.29;97468.03;6813523;29;20202;-78
2021/12/25 07:11:42;;;;;;;13.60;10.37;;;;;;;12.76;65.28;97461.66;6817325;29;20233;-78
2021/12/25 07:15:05;;;;;;;13.37;10.73;;;;;;;12.92;64.90;97468.88;6815930;29;20235;-78
2021/12/25 07:18:26;;;;;;;20.40;12.33;;;;;;;12.91;65.00;97474.53;6817388;29;20226;-79
2021/12/25 07:21:48;;;;;;;15.00;11.77;;;;;;;12.30;66.95;97474.81;6816927;29;20229;-79
2021/12/25 07:25:11;;;;;;;14.03;10.13;;;;;;;12.62;67.16;97487.44;6816618;29;20210;-78
2021/12/25 07:28:34;;;;;;;14.00;11.03;;;;;;;12.31;67.93;97481.84;6817698;29;20213;-78
2021/12/25 07:31:55;;;;;;;16.90;12.60;;;;;;;12.88;66.31;97489.41;6816575;29;20231;-78
2021/12/25 07:35:17;;;;;;;16.27;12.27;;;;;;;12.93;65.36;97491.34;6816576;29;20214;-80
2021/12/25 07:38:40;;;;;;;13.97;10.60;;;;;;;12.75;65.88;97495.16;6816276;29;20226;-79
2021/12/25 07:42:03;;;;;;;14.27;10.33;;;;;;;12.56;67.01;97510.06;6816513;29;20233;-80
2021/12/25 07:45:25;;;;;;;12.97;9.60;;;;;;;12.11;68.24;97498.56;6815997;29;20206;-80
2021/12/25 07:48:47;;;;;;;10.27;8.90;;;;;;;12.26;68.31;97516.88;6816059;29;20214;-79
2021/12/25 07:52:08;;;;;;;13.40;10.40;;;;;;;12.80;66.50;97514.16;6816100;29;20273;-80
2021/12/25 07:55:32;;;;;;;13.20;9.60;;;;;;;12.93;65.93;97526.53;6815885;29;20217;-79
2021/12/25 07:58:55;;;;;;;12.77;9.67;;;;;;;12.80;66.46;97527.69;6816522;29;20726;-80
2021/12/25 08:02:16;;;;;;;12.77;9.10;;;;;;;13.06;65.64;97527.00;6815843;29;20238;-78
2021/12/25 08:05:38;;;;;;;12.53;9.90;;;;;;;13.57;64.10;97529.22;6814371;29;20214;-77
2021/12/25 08:09:01;;;;;;;11.87;9.67;;;;;;;13.33;64.23;97517.03;6815270;29;20203;-77
2021/12/25 08:12:23;;;;;;;9.90;8.27;;;;;;;13.10;65.53;97546.25;6815174;29;20246;-78
2021/12/25 08:15:46;;;;;;;10.10;8.13;;;;;;;12.84;66.91;97546.94;6815003;29;20238;-79
2021/12/25 08:19:07;;;;;;;9.23;8.10;;;;;;;12.46;67.81;97550.44;6816071;29;20273;-79
2021/12/25 08:22:29;;;;;;;8.07;7.27;;;;;;;13.04;66.51;97558.09;6815616;29;20313;-80
2021/12/25 08:25:50;;;;;;;10.23;8.03;;;;;;;12.93;66.86;97557.06;6816802;29;20294;-80
2021/12/25 08:29:13;;;;;;;10.30;7.70;;;;;;;13.45;65.85;97568.34;6815794;29;20246;-78
2021/12/25 08:32:36;;;;;;;12.33;7.60;;;;;;;14.09;63.70;97554.66;6813764;29;20237;-78
2021/12/25 08:35:58;;;;;;;10.07;8.57;;;;;;;13.14;65.55;97537.38;6814259;29;20670;-79
2021/12/25 08:39:19;;;;;;;10.07;8.13;;;;;;;12.97;66.39;97566.38;6814611;29;20576;-78
2021/12/25 08:42:46;;;;;;;8.90;8.00;;;;;;;13.56;65.24;97560.06;6816295;29;20237;-79
2021/12/25 08:46:15;;;;;;;8.70;7.07;;;;;;;13.40;66.29;97571.00;6813665;29;20272;-79
2021/12/25 08:49:39;;;;;;;9.20;7.97;;;;;;;13.86;65.16;97570.44;6811542;29;20212;-79
2021/12/25 08:53:01;;;;;;;9.80;7.53;;;;;;;13.86;64.53;97556.88;6814009;29;20710;-80
2021/12/25 08:56:22;;;;;;;9.57;8.00;;;;;;;13.64;65.56;97572.34;6818141;29;20203;-81
2021/12/25 08:59:44;;;;;;;10.27;8.00;;;;;;;13.85;65.64;97568.78;6819641;29;20230;-79
2021/12/25 09:03:06;;;;;;;7.13;6.10;;;;;;;14.17;64.50;97562.31;6818900;29;20229;-83
2021/12/25 09:06:29;;;;;;;9.77;6.47;;;;;;;14.39;63.96;97568.50;6818418;29;20198;-82
2021/12/25 09:09:51;;;;;;;7.50;6.77;;;;;;;13.82;64.04;97590.97;6818527;29;20245;-80
2021/12/25 09:13:13;;;;;;;6.77;6.07;;;;;;;13.44;65.24;97580.22;6817921;29;20233;-80
2021/12/25 09:16:35;;;;;;;8.53;6.30;;;;;;;12.97;68.01;97582.59;6818423;29;20206;-79
2021/12/25 09:19:56;;;;;;;5.93;5.33;;;;;;;13.81;65.48;97584.72;6818440;29;20226;-82
2021/12/25 09:23:19;;;;;;;6.07;5.30;;;;;;;14.02;64.37;97564.06;6820018;29;20218;-80
2021/12/25 09:26:41;;;;;;;6.80;6.10;;;;;;;14.12;63.31;97534.34;6817486;29;20202;-80
2021/12/25 09:30:04;;;;;;;10.53;7.90;;;;;;;13.76;64.88;97592.78;6818201;29;20210;-81
2021/12/25 09:33:25;;;;;;;8.60;7.33;;;;;;;13.88;65.19;97579.94;6819441;29;20230;-80
2021/12/25 09:36:47;;;;;;;9.07;7.93;;;;;;;14.26;63.80;97582.50;6822572;29;20206;-81
2021/12/25 09:40:12;;;;;;;7.00;6.30;;;;;;;13.61;65.19;97587.22;6831667;29;20242;-82
2021/12/25 09:43:34;;;;;;;7.47;6.67;;;;;;;13.77;65.38;97599.03;6832649;29;20210;-81
2021/12/25 09:46:56;;;;;;;6.40;5.80;;;;;;;14.29;64.28;97605.56;6830114;29;20206;-83
2021/12/25 09:50:18;;;;;;;6.20;5.60;;;;;;;14.25;64.04;97616.09;6834382;29;20210;-81
2021/12/25 09:53:39;;;;;;;7.23;6.10;;;;;;;14.24;63.33;97611.75;6838531;29;20202;-82
2021/12/25 09:57:03;;;;;;;8.43;6.00;;;;;;;14.52;62.82;97584.31;6835098;29;20203;-82
2021/12/25 10:00:24;;;;;;;10.87;8.63;;;;;;;14.31;62.81;97611.53;6836661;29;20234;-83
2021/12/25 10:03:46;;;;;;;6.20;5.37;;;;;;;13.75;65.07;97593.06;6837545;29;20206;-82
2021/12/25 10:07:20;;;;;;;5.97;4.93;;;;;;;12.34;65.81;97436.22;6836376;29;20190;-84
2021/12/25 10:10:44;;;;;;;7.67;6.10;;;;;;;14.42;63.30;97599.72;6830745;29;20206;-82
2021/12/25 10:14:07;;;;;;;6.33;5.10;;;;;;;14.52;62.26;97599.81;6836574;29;20210;-82
2021/12/25 10:17:30;;;;;;;8.53;6.73;;;;;;;14.42;62.86;97597.81;6838529;29;20213;-81
2021/12/25 10:20:52;;;;;;;8.23;6.80;;;;;;;14.30;63.47;97601.78;6820733;29;20233;-82
2021/12/25 10:24:18;;;;;;;8.47;6.10;;;;;;;14.64;62.23;97600.44;6819070;29;20206;-82
2021/12/25 10:27:49;;;;;;;7.27;6.57;;;;;;;14.64;63.07;97600.44;6819598;29;20202;-84
2021/12/25 10:31:16;;;;;;;7.00;6.30;;;;;;;14.76;62.30;97606.50;6819139;29;20233;-82
2021/12/25 10:34:38;;;;;;;6.40;5.70;;;;;;;14.75;62.43;97592.09;6821821;29;20574;-83
2021/12/25 10:38:11;;;;;;;7.63;5.97;;;;;;;15.05;61.63;97575.22;6818453;29;20567;-82
2021/12/25 10:41:35;;;;;;;5.20;4.70;;;;;;;14.94;60.89;97585.19;6822415;29;20222;-81
2021/12/25 10:44:58;;;;;;;6.40;5.80;;;;;;;15.15;60.78;97559.78;6820625;29;20207;-85
2021/12/25 10:48:27;;;;;;;9.23;7.93;;;;;;;15.51;60.67;97575.19;6818022;29;20214;-83
2021/12/25 10:51:49;;;;;;;21.13;18.90;;;;;;;15.60;59.61;97573.59;6818820;29;20590;-82
2021/12/25 10:55:16;;;;;;;8.77;7.53;;;;;;;15.49;59.46;97573.81;6818964;29;20214;-84
2021/12/25 10:58:39;;;;;;;8.27;7.53;;;;;;;15.47;59.92;97575.97;6819288;29;20214;-83
2021/12/25 11:02:01;;;;;;;7.87;7.07;;;;;;;15.43;59.96;97572.16;6818631;29;20265;-83
2021/12/25 11:05:26;;;;;;;9.13;6.50;;;;;;;15.52;59.58;97571.38;6818433;29;20210;-82
2021/12/25 11:08:49;;;;;;;7.93;6.10;;;;;;;15.43;60.13;97556.69;6819145;29;20543;-82
2021/12/25 11:12:23;;;;;;;4.83;4.30;;;;;;;15.17;60.28;97575.81;6818522;29;20230;-82
2021/12/25 11:15:44;;;;;;;5.30;4.30;;;;;;;15.24;60.83;97569.06;6801820;29;20247;-82
2021/12/25 11:19:09;;;;;;;6.37;4.43;;;;;;;15.14;60.26;97560.03;6818444;29;20251;-82
2021/12/25 11:22:48;;;;;;;5.10;4.27;;;;;;;15.06;60.47;97569.53;6818357;29;20232;-82
2021/12/25 11:26:10;;;;;;;6.03;5.43;;;;;;;15.40;60.31;97570.78;6815656;29;20202;-82
2021/12/25 11:29:33;;;;;;;6.37;5.57;;;;;;;15.31;60.77;97568.81;6818223;29;20250;-82
2021/12/25 11:32:56;;;;;;;6.67;5.97;;;;;;;15.32;60.66;97554.16;6817926;29;20231;-82
2021/12/25 11:36:18;;;;;;;25.07;12.73;;;;;;;15.24;61.00;97541.91;6816477;29;20218;-82
2021/12/25 11:39:42;;;;;;;13.30;6.80;;;;;;;15.45;60.65;97551.00;6816404;29;20236;-83
2021/12/25 11:43:04;;;;;;;12.83;6.57;;;;;;;15.50;60.44;97549.09;6816361;29;20219;-82
2021/12/25 11:46:38;;;;;;;6.27;4.20;;;;;;;15.67;59.73;97548.88;6817359;29;20215;-84
2021/12/25 11:50:01;;;;;;;5.03;3.80;;;;;;;15.31;59.62;97531.63;6818164;29;20198;-83
2021/12/25 11:53:39;;;;;;;3.50;3.20;;;;;;;15.44;59.65;97558.31;6817438;29;20320;-84
2021/12/25 11:57:22;;;;;;;4.57;3.80;;;;;;;15.10;60.50;97550.81;6816887;29;20257;-84
2021/12/25 12:00:46;;;;;;;3.80;3.50;;;;;;;15.29;60.31;97541.91;6817370;29;20241;-84
2021/12/25 12:04:15;;;;;;;7.00;4.17;;;;;;;15.33;59.74;97532.19;6816756;29;20210;-83
2021/12/25 12:08:03;;;;;;;3.57;3.27;;;;;;;15.17;60.47;97543.22;6815161;29;20202;-84
2021/12/25 12:11:27;;;;;;;3.90;3.50;;;;;;;15.31;60.31;97537.06;6810995;29;20395;-84
2021/12/25 12:15:10;;;;;;;6.77;3.20;;;;;;;15.17;60.37;97554.09;6797002;29;20572;-84
2021/12/25 12:18:39;;;;;;;4.87;4.43;;;;;;;15.42;59.51;97549.63;6814757;29;20233;-83
2021/12/25 12:22:03;;;;;;;3.97;3.33;;;;;;;15.46;59.52;97553.41;6814673;29;20265;-81
2021/12/25 12:25:42;;;;;;;3.33;3.07;;;;;;;15.05;60.18;97527.16;6814938;29;20214;-81
2021/12/25 12:29:04;;;;;;;3.77;3.40;;;;;;;15.03;60.34;97523.06;6811695;29;20579;-79
2021/12/25 12:32:37;;;;;;;3.47;3.17;;;;;;;14.99;60.93;97536.34;6815468;29;20241;-81
2021/12/25 12:35:59;;;;;;;3.70;3.40;;;;;;;15.39;59.97;97555.56;6815044;29;20187;-85
2021/12/25 12:39:21;;;;;;;7.03;5.27;;;;;;;15.41;59.86;97560.75;6815301;29;20703;-84
2021/12/25 12:42:52;;;;;;;3.37;2.97;;;;;;;15.28;60.01;97558.50;6815035;29;20228;-82
2021/12/25 12:46:14;;;;;;;4.00;3.60;;;;;;;15.28;59.81;97572.06;6815027;29;20217;-82
2021/12/25 12:49:55;;;;;;;3.97;3.67;;;;;;;15.18;60.21;97569.28;6814971;29;20214;-86
2021/12/25 12:53:18;;;;;;;3.70;3.33;;;;;;;15.03;60.76;97566.50;6815528;29;20326;-84
2021/12/25 12:57:01;;;;;;;5.10;4.40;;;;;;;14.37;62.14;97562.53;6814102;29;20217;-85
2021/12/25 13:00:27;;;;;;;5.30;4.40;;;;;;;14.34;62.77;97571.16;6814753;29;20226;-83
2021/12/25 13:03:48;;;;;;;4.83;4.30;;;;;;;14.83;61.42;97577.22;6789917;29;20218;-82
2021/12/25 13:07:13;;;;;;;6.63;5.60;;;;;;;14.67;61.72;97576.31;6787472;29;20376;-82
2021/12/25 13:10:42;;;;;;;6.40;5.30;;;;;;;14.38;62.40;97583.13;6789306;29;20231;-81
2021/12/25 13:14:05;;;;;;;5.77;5.03;;;;;;;14.68;62.53;97580.66;6788940;29;20183;-82
2021/12/25 13:17:27;;;;;;;5.60;5.10;;;;;;;14.34;62.39;97568.44;6814551;29;20210;-82
2021/12/25 13:20:50;;;;;;;7.40;5.27;;;;;;;14.31;63.09;97585.25;6815402;29;20242;-81
2021/12/25 13:24:16;;;;;;;6.13;5.20;;;;;;;14.45;62.17;97580.22;6814088;29;20203;-83
2021/12/25 13:27:38;;;;;;;6.23;4.67;;;;;;;14.07;63.07;97586.63;6819751;29;20196;-81
2021/12/25 13:31:01;;;;;;;5.97;5.03;;;;;;;14.60;61.92;97589.28;6819195;29;20234;-81
2021/12/25 13:34:23;;;;;;;6.53;5.60;;;;;;;14.49;62.25;97597.59;6819269;29;20218;-82
2021/12/25 13:37:45;;;;;;;7.03;5.03;;;;;;;14.71;61.88;97601.84;6819962;29;20689;-84
2021/12/25 13:41:08;;;;;;;7.33;5.27;;;;;;;14.55;62.42;97602.81;6819230;29;20234;-81
2021/12/25 13:44:33;;;;;;;7.27;6.47;;;;;;;14.80;62.00;97594.84;6819107;29;20214;-83
2021/12/25 13:47:57;;;;;;;6.50;5.90;;;;;;;14.08;63.01;97576.59;6819432;29;20237;-81
2021/12/25 13:51:19;;;;;;;8.00;6.67;;;;;;;14.54;63.09;97620.16;6818940;29;20305;-83
2021/12/25 13:54:43;;;;;;;8.67;7.57;;;;;;;14.47;62.66;97591.63;6818243;29;20237;-81
2021/12/25 13:58:08;;;;;;;10.33;9.10;;;;;;;14.51;63.44;97617.97;6819096;29;20207;-81
2021/12/25 14:01:29;;;;;;;10.87;8.63;;;;;;;14.63;62.53;97604.22;6817915;29;20234;-80
2021/12/25 14:04:52;;;;;;;11.43;7.13;;;;;;;14.35;63.38;97618.91;6816928;29;20198;-80
2021/12/25 14:08:20;;;;;;;9.03;6.77;;;;;;;14.52;62.95;97614.16;6817650;29;20660;-79
2021/12/25 14:11:48;;;;;;;6.57;5.73;;;;;;;14.20;63.24;97601.66;6803250;29;20228;-80
2021/12/25 14:15:12;;;;;;;7.73;5.97;;;;;;;14.73;62.68;97626.00;6809545;29;20678;-80
2021/12/25 14:18:37;;;;;;;10.20;8.67;;;;;;;14.56;62.43;97628.03;6817018;29;20205;-80
2021/12/25 14:22:00;;;;;;;10.07;8.87;;;;;;;14.51;62.55;97609.81;6817713;29;20230;-79
2021/12/25 14:25:25;;;;;;;9.93;7.90;;;;;;;14.54;62.58;97625.59;6816402;29;20221;-80
2021/12/25 14:28:47;;;;;;;11.43;9.57;;;;;;;14.43;63.00;97634.72;6812190;29;20242;-80
2021/12/25 14:32:20;;;;;;;8.73;7.80;;;;;;;14.31;62.71;97617.78;6817105;29;20297;-80
2021/12/25 14:35:43;;;;;;;10.20;9.10;;;;;;;14.15;64.10;97620.59;6812882;29;20202;-80
2021/12/25 14:39:05;;;;;;;10.03;7.50;;;;;;;13.93;63.43;97601.66;6816391;29;20231;-81
2021/12/25 14:42:34;;;;;;;13.57;10.37;;;;;;;13.92;64.16;97615.47;6816071;29;20306;-80
2021/12/25 14:45:55;;;;;;;10.00;8.87;;;;;;;14.43;62.83;97628.44;6814983;29;20252;-80
2021/12/25 14:49:19;;;;;;;13.83;11.83;;;;;;;14.34;63.05;97621.88;6816486;29;20667;-80
2021/12/25 14:52:40;;;;;;;8.10;7.10;;;;;;;14.35;62.84;97635.19;6813903;29;20278;-79
2021/12/25 14:56:05;;;;;;;8.73;6.60;;;;;;;14.02;63.86;97634.53;6814098;29;20563;-80
2021/12/25 14:59:28;;;;;;;8.40;7.33;;;;;;;13.94;64.16;97613.31;6814033;29;20293;-80
2021/12/25 15:02:50;;;;;;;10.07;8.47;;;;;;;14.31;63.31;97620.50;6811738;29;20608;-80
2021/12/25 15:06:24;;;;;;;8.33;6.67;;;;;;;14.42;62.67;97621.41;6813530;29;20202;-80
2021/12/25 15:09:48;;;;;;;9.10;7.50;;;;;;;14.12;63.34;97604.81;6813272;29;20215;-80
2021/12/25 15:13:14;;;;;;;12.43;8.37;;;;;;;14.28;62.81;97609.34;6813555;29;20223;-80
2021/12/25 15:16:41;;;;;;;10.90;9.67;;;;;;;14.30;62.92;97623.47;6814172;29;20234;-80
2021/12/25 15:20:08;;;;;;;11.67;10.40;;;;;;;14.22;63.34;97630.16;6814753;29;20233;-82
2021/12/25 15:23:32;;;;;;;13.90;10.97;;;;;;;13.67;63.44;97547.47;6814509;29;20238;-81
2021/12/25 15:26:57;;;;;;;15.57;11.00;;;;;;;13.60;64.55;97604.53;6815013;29;20218;-82
2021/12/25 15:30:21;;;;;;;18.97;11.73;;;;;;;13.51;64.94;97591.72;6816032;29;20206;-82
2021/12/25 15:33:48;;;;;;;15.80;11.90;;;;;;;14.12;64.33;97634.63;6817112;29;20209;-81
2021/12/25 15:37:21;;;;;;;15.13;13.27;;;;;;;14.24;63.37;97638.88;6817035;29;20210;-81
2021/12/25 15:40:46;;;;;;;22.33;16.37;;;;;;;14.31;62.69;97630.50;6818205;29;20237;-81
2021/12/25 15:44:07;;;;;;;18.00;13.90;;;;;;;14.17;62.95;97632.78;6817338;29;20301;-81
2021/12/25 15:47:30;;;;;;;17.60;14.37;;;;;;;14.09;62.73;97635.16;6815360;29;20213;-81
2021/12/25 15:50:51;;;;;;;18.10;14.10;;;;;;;14.08;62.57;97647.88;6815140;29;20222;-80
2021/12/25 15:54:13;;;;;;;25.13;19.47;;;;;;;14.05;62.57;97639.44;6813305;29;20233;-83
2021/12/25 15:57:36;;;;;;;23.50;16.90;;;;;;;14.05;62.72;97656.50;6816352;29;20210;-82
2021/12/25 16:00:59;;;;;;;21.63;17.07;;;;;;;13.81;62.79;97635.38;6818556;29;20226;-84
2021/12/25 16:04:20;;;;;;;23.83;19.73;;;;;;;13.48;63.85;97654.47;6814382;29;20206;-81
2021/12/25 16:07:42;;;;;;;30.80;23.93;;;;;;;13.73;63.52;97665.63;6815180;29;20203;-81
2021/12/25 16:11:04;;;;;;;25.37;21.43;;;;;;;13.70;63.33;97666.94;6814044;29;20229;-84
2021/12/25 16:14:29;;;;;;;19.53;15.43;;;;;;;13.44;62.88;97662.28;6813942;29;20690;-80
2021/12/25 16:17:50;;;;;;;58.43;33.10;;;;;;;13.20;63.95;97674.41;6814526;29;20198;-81
2021/12/25 16:21:12;;;;;;;34.17;22.20;;;;;;;13.45;63.33;97679.34;6814645;29;20323;-80
2021/12/25 16:24:33;;;;;;;51.17;30.53;;;;;;;13.09;63.21;97669.09;6815296;29;20210;-81
2021/12/25 16:27:55;;;;;;;27.93;18.80;;;;;;;12.95;63.07;97675.88;6815996;29;20213;-81
2021/12/25 16:31:18;;;;;;;26.00;20.93;;;;;;;12.55;64.49;97664.41;6816910;29;20238;-81
2021/12/25 16:34:42;;;;;;;23.73;15.73;;;;;;;12.16;64.79;97668.84;6818490;29;20221;-80
2021/12/25 16:38:05;;;;;;;21.60;16.33;;;;;;;12.53;64.48;97693.56;6820027;29;20217;-81
2021/12/25 16:41:27;;;;;;;24.07;18.00;;;;;;;12.22;64.03;97640.84;6820141;29;20245;-81
2021/12/25 16:44:49;;;;;;;21.57;17.03;;;;;;;12.39;64.12;97657.13;6819907;29;20206;-81
2021/12/25 16:48:12;;;;;;;21.10;16.27;;;;;;;12.33;63.58;97699.44;6819991;29;20606;-81
2021/12/25 16:51:34;;;;;;;21.50;15.63;;;;;;;12.08;64.30;97701.66;6819547;29;20230;-81
2021/12/25 16:54:55;;;;;;;21.97;17.53;;;;;;;11.64;64.81;97707.78;6818199;29;20214;-81
2021/12/25 16:58:17;;;;;;;18.47;16.47;;;;;;;11.81;63.95;97714.09;6818522;29;20568;-81
2021/12/25 17:01:39;;;;;;;15.60;12.93;;;;;;;11.40;64.30;97681.06;6822580;29;20242;-81
2021/12/25 17:05:02;;;;;;;17.10;14.10;;;;;;;11.64;64.51;97710.47;6823543;29;20209;-81
2021/12/25 17:08:23;;;;;;;16.83;14.57;;;;;;;11.93;64.02;97719.47;6824365;29;20202;-81
2021/12/25 17:11:45;;;;;;;16.10;13.67;;;;;;;11.32;63.04;97608.56;6824810;29;20226;-81
2021/12/25 17:15:09;;;;;;;20.50;17.43;;;;;;;11.49;64.45;97729.03;6824716;29;20217;-81
2021/12/25 17:18:32;;;;;;;22.33;19.80;;;;;;;11.31;65.36;97722.94;6825528;29;20210;-81
2021/12/25 17:21:55;;;;;;;19.60;16.27;;;;;;;11.37;63.93;97697.72;6824827;29;20225;-81
2021/12/25 17:25:17;;;;;;;17.57;15.57;;;;;;;11.17;65.03;97722.34;6825262;29;20209;-81
2021/12/25 17:28:38;;;;;;;18.17;14.50;;;;;;;11.49;64.20;97718.25;6825050;29;20210;-81
2021/12/25 17:32:00;;;;;;;19.00;14.87;;;;;;;10.55;64.04;97633.25;6824614;29;20244;-81
2021/12/25 17:35:22;;;;;;;20.47;16.13;;;;;;;11.45;63.90;97744.06;6824525;29;20209;-81
2021/12/25 17:38:46;;;;;;;15.53;13.57;;;;;;;11.28;63.57;97739.63;6825840;29;20210;-81
2021/12/25 17:42:09;;;;;;;14.73;12.57;;;;;;;11.38;63.34;97742.53;6826222;29;20258;-81
2021/12/25 17:45:30;;;;;;;15.53;11.60;;;;;;;11.17;63.54;97740.44;6822768;29;20213;-81
2021/12/25 17:48:52;;;;;;;13.43;11.33;;;;;;;11.20;62.67;97696.78;6821706;29;20211;-80
2021/12/25 17:52:16;;;;;;;13.63;12.00;;;;;;;11.09;63.44;97716.53;6820666;29;20234;-81
2021/12/25 17:55:39;;;;;;;15.13;11.57;;;;;;;10.63;63.55;97708.38;6811853;29;20218;-81
2021/12/25 17:59:01;;;;;;;13.73;11.83;;;;;;;11.09;63.14;97706.53;6821672;29;20291;-81
2021/12/25 18:02:23;;;;;;;13.23;11.67;;;;;;;10.75;63.16;97726.19;6820326;29;20298;-85
2021/12/25 18:05:47;;;;;;;13.73;12.23;;;;;;;10.92;63.79;97745.25;6819494;29;20209;-84
2021/12/25 18:09:09;;;;;;;18.53;13.97;;;;;;;11.18;64.20;97737.50;6822909;29;20254;-85
2021/12/25 18:12:32;;;;;;;12.87;11.20;;;;;;;11.25;62.64;97675.31;6826061;29;20237;-84
2021/12/25 18:15:53;;;;;;;18.10;14.30;;;;;;;11.60;62.50;97713.91;6819590;29;20202;-80
2021/12/25 18:19:15;;;;;;;21.67;16.67;;;;;;;11.21;61.54;97718.16;6818782;29;20587;-80
2021/12/25 18:22:36;;;;;;;31.80;23.17;;;;;;;11.73;61.83;97737.94;6818006;29;20248;-80
2021/12/25 18:25:59;;;;;;;31.60;22.70;;;;;;;11.78;60.81;97719.97;6819445;29;20221;-82
2021/12/25 18:29:22;;;;;;;30.70;20.97;;;;;;;11.85;60.93;97755.75;6823712;29;20226;-80
2021/12/25 18:32:44;;;;;;;24.37;18.77;;;;;;;11.27;60.21;97711.81;6819404;29;20235;-81
2021/12/25 18:36:07;;;;;;;41.43;28.33;;;;;;;11.14;60.83;97749.81;6815492;29;20212;-80
2021/12/25 18:39:28;;;;;;;19.27;16.53;;;;;;;10.89;62.26;97769.97;6817759;29;20208;-80
2021/12/25 18:42:50;;;;;;;14.53;11.60;;;;;;;10.75;62.89;97773.91;6817423;29;20256;-80
2021/12/25 18:46:14;;;;;;;38.87;28.43;;;;;;;10.37;63.29;97754.59;6817048;29;20198;-80
2021/12/25 18:49:36;;;;;;;31.37;24.07;;;;;;;10.59;62.81;97771.88;6812337;29;20231;-80
2021/12/25 18:52:59;;;;;;;19.17;17.13;;;;;;;10.92;62.11;97762.22;6817148;29;20720;-80
2021/12/25 18:56:22;;;;;;;18.73;16.73;;;;;;;10.77;61.95;97766.41;6816848;29;20206;-80
2021/12/25 18:59:44;;;;;;;17.50;15.53;;;;;;;10.79;62.86;97762.44;6817387;29;20238;-80
2021/12/25 19:03:08;;;;;;;37.83;30.67;;;;;;;10.35;63.16;97744.06;6812770;29;20243;-80
2021/12/25 19:06:30;;;;;;;39.77;31.53;;;;;;;10.57;62.80;97764.03;6813471;29;20198;-80
2021/12/25 19:09:51;;;;;;;22.33;16.60;;;;;;;10.29;63.48;97765.69;6816778;29;20201;-81
2021/12/25 19:13:13;;;;;;;26.23;21.47;;;;;;;10.65;62.69;97770.97;6816542;29;20229;-82
2021/12/25 19:16:35;;;;;;;16.57;14.60;;;;;;;10.22;63.89;97759.56;6818850;29;20365;-82
2021/12/25 19:19:59;;;;;;;14.83;12.97;;;;;;;10.13;63.63;97761.75;6818621;29;20216;-81
2021/12/25 19:23:21;;;;;;;16.97;13.70;;;;;;;10.19;63.34;97758.16;6818935;29;20225;-81
2021/12/25 19:26:43;;;;;;;17.13;14.37;;;;;;;10.06;64.10;97773.66;6816973;29;20210;-81
2021/12/25 19:30:07;;;;;;;25.53;21.67;;;;;;;10.39;63.42;97776.75;6816801;29;20345;-80
2021/12/25 19:33:29;;;;;;;26.50;19.07;;;;;;;10.41;63.34;97783.56;6815314;29;20230;-81
2021/12/25 19:36:52;;;;;;;19.20;16.20;;;;;;;10.23;64.25;97790.84;6813219;29;20210;-81
2021/12/25 19:40:17;;;;;;;26.77;20.67;;;;;;;10.42;62.98;97789.75;6815426;29;20219;-81
2021/12/25 19:43:38;;;;;;;22.77;18.47;;;;;;;10.18;63.81;97788.84;6814414;29;20615;-81
2021/12/25 19:47:01;;;;;;;20.63;14.97;;;;;;;10.41;62.59;97788.09;6815053;29;20214;-81
2021/12/25 19:50:25;;;;;;;22.43;20.00;;;;;;;10.28;63.20;97782.91;6815872;29;20353;-81
2021/12/25 19:53:48;;;;;;;95.47;60.17;;;;;;;10.41;63.37;97793.50;6816260;29;20201;-80
2021/12/25 19:57:10;;;;;;;37.07;28.07;;;;;;;10.03;63.11;97784.88;6814856;29;20199;-81
2021/12/25 20:00:40;;;;;;;30.43;25.13;;;;;;;9.90;63.92;97764.31;6815194;29;20242;-80
2021/12/25 20:04:03;;;;;;;35.10;27.77;;;;;;;10.01;64.14;97773.47;6815104;29;20335;-81
2021/12/25 20:07:24;;;;;;;25.50;21.03;;;;;;;10.03;64.05;97785.69;6813970;29;20209;-80
2021/12/25 20:10:47;;;;;;;29.53;21.73;;;;;;;9.75;64.48;97776.50;6814714;29;20233;-80
2021/12/25 20:14:09;;;;;;;42.27;32.87;;;;;;;9.76;64.69;97749.38;6814012;29;20195;-81
2021/12/25 20:17:31;;;;;;;23.63;19.70;;;;;;;9.88;64.14;97765.56;6813804;29;20322;-81
2021/12/25 20:20:52;;;;;;;28.03;22.10;;;;;;;9.97;63.83;97791.97;6813975;29;20242;-82
2021/12/25 20:24:15;;;;;;;27.17;21.57;;;;;;;9.88;64.03;97765.56;6816503;29;20681;-81
2021/12/25 20:27:39;;;;;;;29.47;23.67;;;;;;;9.72;64.11;97810.06;6817000;29;20683;-83
2021/12/25 20:31:00;;;;;;;26.07;19.67;;;;;;;9.81;64.14;97792.56;6816006;29;20715;-80
2021/12/25 20:34:23;;;;;;;18.37;15.23;;;;;;;9.77;64.52;97788.69;6814492;29;20213;-80
2021/12/25 20:37:45;;;;;;;20.67;17.10;;;;;;;9.98;63.87;97776.66;6810643;29;20209;-80
2021/12/25 20:41:07;;;;;;;23.90;19.03;;;;;;;9.84;63.58;97772.44;6816225;29;20646;-80
2021/12/25 20:48:09;;;;;;;16.93;13.90;;;;;;;9.88;63.73;97792.50;6815116;29;20226;-80
2021/12/25 20:51:30;;;;;;;17.53;15.40;;;;;;;9.88;63.61;97754.81;6816286;29;20228;-81
2021/12/25 20:54:52;;;;;;;18.40;14.80;;;;;;;10.13;63.28;97782.47;6815633;29;20206;-81